ROIG

Details ICAO ROIG (ISG)
Name ISHIGAKI
Region Japan
Timezone Asia/Tokyo (UTC+9.0)
Plans Departing 24
Arriving 46
Stats Elevation 93 ft / 28 m (AMSL)
Location 24.344524° 124.186983°
Runways 1
Magnetic Variation 4.600° W
Sunrise 2018-05-22 20:58:29 UTC / 2018-05-23 05:58:29 Local
Sunset 2018-05-23 10:24:19 UTC / 2018-05-23 19:24:19 Local
Advertisement - Login to hide

Runways

ID Width Length Bearing (true) Bearing (mag) Surface Threshold Offset Overrun Length
04 150 ft / 46 m 4,930 ft / 1,503 m 41.99° 46.59° Asphalt 0 ft / 0 m 200 ft / 61 m
22 150 ft / 46 m 4,930 ft / 1,503 m 222.00° 226.60° Asphalt 0 ft / 0 m 200 ft / 61 m

Map

Weather


0- 5 10 15 20 25 30 35+ Temperature / ° C

Clouds and Precipitation
Forecast for 2018-05-23 12:00 UTC. Updated 2 hours ago

Ground ~20,000 ft ~40,000 ft Winds

METAR

Not found

TAF

TAF ROIG 231109Z 2312/2418 02005KT 9999 FEW015 BKN025

Frequencies

Tower 126.20 MHz TWR
Tower 118.00 MHz TWR
Warning: Do not use this data for real-world aviation or navigation. No guarantee of current accuracy is given.